Time;durP1;ratioP1;P1;durP2;ratioP2;P2;SDS_P1;SDS_P2;PMS_P1;PMS_P2;Temp;Humidity;BMP_temperature;BMP_pressure;BME280_temperature;BME280_humidity;BME280_pressure;Samples;Min_cycle;Max_cycle;Signal;HPM_P1;HPM_P2
2020/12/27 00:00:37;;;;;;;2.53;2.20;;;4.90;99.90;;;;;;4981268;28;20197;-47
2020/12/27 00:03:03;;;;;;;1.67;1.57;;;4.90;99.90;;;;;;4985564;28;20190;-45
2020/12/27 00:05:28;;;;;;;1.67;1.57;;;4.90;99.90;;;;;;4968650;28;20324;-46
2020/12/27 00:07:54;;;;;;;2.07;1.87;;;5.00;99.90;;;;;;4969828;28;20182;-45
2020/12/27 00:10:19;;;;;;;1.93;1.83;;;4.90;99.90;;;;;;4974904;28;20231;-47
2020/12/27 00:12:44;;;;;;;1.50;1.30;;;4.90;99.90;;;;;;4974413;28;20224;-46
2020/12/27 00:15:10;;;;;;;2.03;1.87;;;5.00;99.90;;;;;;4984691;28;20670;-46
2020/12/27 00:17:35;;;;;;;2.63;1.50;;;5.00;99.90;;;;;;4980993;28;20555;-45
2020/12/27 00:20:04;;;;;;;2.17;1.63;;;5.00;99.90;;;;;;4975499;28;20189;-46
2020/12/27 00:22:29;;;;;;;2.77;2.40;;;5.00;99.90;;;;;;4973241;28;20225;-47
2020/12/27 00:24:55;;;;;;;2.10;1.90;;;5.00;99.90;;;;;;4985346;28;20263;-46
2020/12/27 00:27:20;;;;;;;2.10;1.90;;;5.00;99.90;;;;;;4983533;28;20925;-45
2020/12/27 00:29:46;;;;;;;2.03;1.60;;;4.90;99.90;;;;;;4983432;28;20453;-47
2020/12/27 00:32:11;;;;;;;1.97;1.50;;;5.00;99.90;;;;;;4985323;28;20205;-46
2020/12/27 00:34:38;;;;;;;1.70;1.60;;;5.00;99.90;;;;;;4979667;28;20798;-50
2020/12/27 00:37:03;;;;;;;2.17;1.97;;;4.90;99.90;;;;;;4974671;28;20204;-47
2020/12/27 00:39:29;;;;;;;1.50;1.40;;;4.80;99.90;;;;;;4974006;28;20185;-48
2020/12/27 00:41:59;;;;;;;2.73;1.93;;;4.80;99.90;;;;;;4977036;28;20182;-48
2020/12/27 00:44:25;;;;;;;2.33;1.60;;;4.70;99.90;;;;;;4962809;28;20189;-46
2020/12/27 00:46:50;;;;;;;1.67;1.57;;;4.70;99.90;;;;;;4964637;28;20377;-46
2020/12/27 00:49:20;;;;;;;1.70;1.40;;;4.60;99.90;;;;;;4964269;28;20237;-47
2020/12/27 00:51:46;;;;;;;1.20;1.10;;;4.60;99.90;;;;;;4957901;28;20445;-53
2020/12/27 00:54:12;;;;;;;2.00;1.73;;;4.70;99.90;;;;;;4976364;28;20194;-49
2020/12/27 00:56:37;;;;;;;1.50;1.40;;;4.60;99.90;;;;;;4981306;28;20424;-44
2020/12/27 00:59:03;;;;;;;1.57;1.47;;;4.60;99.90;;;;;;4985088;28;20638;-46
2020/12/27 01:01:29;;;;;;;1.60;1.50;;;4.60;99.90;;;;;;4980608;28;20244;-47
2020/12/27 01:03:55;;;;;;;2.40;1.90;;;4.60;99.90;;;;;;4984369;28;20198;-47
2020/12/27 01:06:28;;;;;;;1.70;1.60;;;4.60;99.90;;;;;;4982635;28;20254;-48
2020/12/27 01:08:54;;;;;;;1.80;1.70;;;4.70;99.90;;;;;;4966992;28;20237;-46
2020/12/27 01:11:20;;;;;;;1.50;1.40;;;4.70;99.90;;;;;;4978171;28;20192;-46
2020/12/27 01:13:45;;;;;;;4.97;2.20;;;4.70;99.90;;;;;;4977352;28;20933;-45
2020/12/27 01:16:12;;;;;;;1.77;1.53;;;4.70;99.90;;;;;;4984858;28;20260;-46
2020/12/27 01:18:42;;;;;;;1.90;1.80;;;4.70;99.90;;;;;;4980358;28;21224;-45
2020/12/27 01:21:08;;;;;;;1.60;1.50;;;4.70;99.90;;;;;;4984385;28;20181;-46
2020/12/27 01:23:34;;;;;;;1.80;1.70;;;4.70;99.90;;;;;;4969578;28;21131;-46
2020/12/27 01:26:00;;;;;;;1.87;1.77;;;4.60;99.90;;;;;;4976104;28;20185;-48
2020/12/27 01:28:25;;;;;;;1.80;1.70;;;4.60;99.90;;;;;;4981695;28;20269;-45
2020/12/27 01:30:51;;;;;;;1.70;1.60;;;4.60;99.90;;;;;;4984615;28;20181;-46
2020/12/27 01:33:16;;;;;;;1.80;1.70;;;4.60;99.90;;;;;;4984254;28;20201;-48
2020/12/27 01:35:46;;;;;;;2.37;1.77;;;4.60;99.90;;;;;;4982724;28;20564;-49
2020/12/27 01:38:13;;;;;;;1.80;1.70;;;4.60;99.90;;;;;;4984045;28;20557;-46
2020/12/27 01:40:39;;;;;;;1.93;1.77;;;4.60;99.90;;;;;;4969905;28;20194;-45
2020/12/27 01:43:04;;;;;;;1.77;1.60;;;4.50;99.90;;;;;;4975588;28;20205;-46
2020/12/27 01:45:30;;;;;;;1.93;1.40;;;4.50;99.90;;;;;;4979870;28;20187;-46
2020/12/27 01:47:55;;;;;;;1.93;1.73;;;4.40;99.90;;;;;;4984194;28;20181;-45
2020/12/27 01:50:21;;;;;;;3.30;2.00;;;4.40;99.90;;;;;;4981747;28;20221;-48
2020/12/27 01:52:47;;;;;;;2.10;1.77;;;4.40;99.90;;;;;;4981725;28;20224;-48
2020/12/27 01:55:14;;;;;;;1.90;1.80;;;4.40;99.90;;;;;;4982203;28;20268;-47
2020/12/27 01:58:03;;;;;;;2.10;1.90;;;4.30;99.90;;;;;;4966596;28;20217;-49
2020/12/27 02:00:29;;;;;;;2.37;2.00;;;4.30;99.90;;;;;;4960593;28;20241;-47
2020/12/27 02:02:55;;;;;;;2.47;2.27;;;4.30;99.90;;;;;;4964128;28;20186;-45
2020/12/27 02:05:20;;;;;;;2.63;1.93;;;4.20;99.90;;;;;;4962426;28;20209;-50
2020/12/27 02:07:47;;;;;;;4.73;2.30;;;4.20;99.90;;;;;;4962631;28;20470;-47
2020/12/27 02:10:13;;;;;;;2.60;2.40;;;4.20;99.90;;;;;;4966548;28;20733;-49
2020/12/27 02:12:39;;;;;;;2.00;1.80;;;4.20;99.90;;;;;;4965920;28;20218;-47
2020/12/27 02:15:05;;;;;;;2.03;1.70;;;4.10;99.90;;;;;;4981321;28;20173;-49
2020/12/27 02:17:31;;;;;;;2.27;1.97;;;4.10;99.90;;;;;;4959604;28;20194;-46
2020/12/27 02:19:56;;;;;;;1.80;1.70;;;4.10;99.90;;;;;;4963191;28;20174;-47
2020/12/27 02:22:22;;;;;;;1.90;1.80;;;4.10;99.90;;;;;;4960550;28;20618;-50
2020/12/27 02:24:49;;;;;;;1.80;1.70;;;4.10;99.90;;;;;;4965741;28;20185;-49
2020/12/27 02:27:14;;;;;;;2.20;2.00;;;4.10;99.90;;;;;;4966062;28;20189;-50
2020/12/27 02:29:40;;;;;;;2.03;1.50;;;4.10;99.90;;;;;;4976199;28;20430;-46
2020/12/27 02:32:05;;;;;;;2.20;1.60;;;4.10;99.90;;;;;;4987387;28;20654;-45
2020/12/27 02:34:30;;;;;;;1.63;1.53;;;4.10;99.90;;;;;;4983100;28;20363;-48
2020/12/27 02:36:57;;;;;;;2.53;2.00;;;4.10;99.90;;;;;;4987421;28;20204;-46
2020/12/27 02:39:22;;;;;;;2.40;1.60;;;4.10;99.90;;;;;;4985170;28;20217;-46
2020/12/27 02:41:49;;;;;;;1.77;1.67;;;4.10;99.90;;;;;;4973415;28;20330;-47
2020/12/27 02:44:15;;;;;;;2.30;1.77;;;4.20;99.90;;;;;;4978341;28;20197;-47
2020/12/27 02:46:41;;;;;;;2.73;1.63;;;4.10;99.90;;;;;;4983911;28;20197;-48
2020/12/27 02:49:06;;;;;;;1.47;1.37;;;4.20;99.90;;;;;;4987288;28;20211;-48
2020/12/27 02:51:32;;;;;;;1.67;1.30;;;4.20;99.90;;;;;;4982562;28;20861;-46
2020/12/27 02:53:58;;;;;;;1.63;1.53;;;4.20;99.90;;;;;;4987236;28;20201;-47
2020/12/27 02:56:25;;;;;;;2.63;1.50;;;4.20;99.90;;;;;;4984099;28;20173;-45
2020/12/27 02:58:52;;;;;;;1.63;1.53;;;4.30;99.90;;;;;;4969309;28;20198;-48
2020/12/27 03:01:18;;;;;;;1.57;1.47;;;4.30;99.90;;;;;;4973588;28;20170;-47
2020/12/27 03:03:44;;;;;;;1.50;1.40;;;4.30;99.90;;;;;;4965259;28;20202;-44
2020/12/27 03:06:10;;;;;;;2.30;1.73;;;4.30;99.90;;;;;;4967369;28;20667;-44
2020/12/27 03:08:36;;;;;;;1.10;1.00;;;4.30;99.90;;;;;;4963055;28;20467;-45
2020/12/27 03:11:01;;;;;;;1.50;1.40;;;4.30;99.90;;;;;;4976835;28;20185;-51
2020/12/27 03:13:28;;;;;;;1.70;1.60;;;4.40;99.90;;;;;;4967905;28;20205;-50
2020/12/27 03:15:54;;;;;;;1.60;1.50;;;4.30;99.90;;;;;;4977817;28;20194;-47
2020/12/27 03:18:20;;;;;;;1.20;1.10;;;4.40;99.90;;;;;;4984360;28;20185;-45
2020/12/27 03:20:46;;;;;;;1.90;0.90;;;4.40;99.90;;;;;;4985566;28;20477;-47
2020/12/27 03:23:12;;;;;;;1.30;1.00;;;4.40;99.90;;;;;;4987787;28;20221;-47
2020/12/27 03:25:37;;;;;;;1.90;1.07;;;4.40;99.90;;;;;;4983994;28;20177;-47
2020/12/27 03:28:03;;;;;;;2.57;0.90;;;4.40;99.90;;;;;;4987711;28;20271;-51
2020/12/27 03:30:29;;;;;;;2.17;1.30;;;4.50;99.90;;;;;;4973705;28;20192;-47
2020/12/27 03:32:54;;;;;;;0.90;0.90;;;4.50;99.90;;;;;;4979216;28;20209;-51
2020/12/27 03:35:20;;;;;;;1.37;1.17;;;4.50;99.90;;;;;;4985166;28;20216;-45
2020/12/27 03:37:46;;;;;;;1.63;1.23;;;4.50;99.90;;;;;;4984683;28;20292;-49
2020/12/27 03:40:11;;;;;;;1.83;1.20;;;4.50;99.90;;;;;;4986154;28;20200;-49
2020/12/27 03:42:37;;;;;;;1.20;1.10;;;4.60;99.90;;;;;;4974037;28;20270;-47
2020/12/27 03:45:03;;;;;;;0.97;0.90;;;4.50;99.90;;;;;;4975719;28;20202;-46
2020/12/27 03:47:29;;;;;;;1.13;0.90;;;4.60;99.90;;;;;;4970907;28;20181;-46
2020/12/27 03:49:55;;;;;;;1.00;0.80;;;4.60;99.90;;;;;;4966454;28;20678;-46
2020/12/27 03:52:20;;;;;;;1.10;1.00;;;4.60;99.90;;;;;;4964424;28;20194;-46
2020/12/27 03:54:46;;;;;;;1.53;0.90;;;4.60;99.90;;;;;;4964747;28;20858;-47
2020/12/27 03:57:11;;;;;;;0.87;0.73;;;4.60;99.90;;;;;;4966602;28;20293;-47
2020/12/27 03:59:37;;;;;;;1.40;1.10;;;4.60;99.90;;;;;;4955894;28;20491;-49
2020/12/27 04:02:02;;;;;;;1.57;0.90;;;4.60;99.90;;;;;;4977481;28;20178;-50
2020/12/27 04:04:28;;;;;;;0.90;0.90;;;4.70;99.90;;;;;;4982166;28;20209;-49
2020/12/27 04:06:53;;;;;;;1.07;0.97;;;4.70;99.90;;;;;;4985435;28;20271;-45
2020/12/27 04:09:19;;;;;;;0.90;0.90;;;4.70;99.90;;;;;;4983873;28;20202;-46
2020/12/27 04:11:44;;;;;;;0.80;0.80;;;4.70;99.90;;;;;;4976877;28;20197;-44
2020/12/27 04:14:10;;;;;;;2.50;1.30;;;4.60;99.90;;;;;;4984026;28;20284;-45
2020/12/27 04:16:35;;;;;;;1.00;0.93;;;4.60;99.90;;;;;;4967355;28;20232;-45
2020/12/27 04:19:01;;;;;;;1.50;1.20;;;4.60;99.90;;;;;;4974185;28;20186;-48
2020/12/27 04:21:26;;;;;;;1.10;1.00;;;4.60;99.90;;;;;;4962663;28;20654;-46
2020/12/27 04:23:51;;;;;;;2.67;1.20;;;4.60;99.90;;;;;;4964818;28;20264;-49
2020/12/27 04:26:17;;;;;;;1.20;1.10;;;4.60;99.90;;;;;;4967156;28;20538;-45
2020/12/27 04:28:43;;;;;;;0.80;0.70;;;4.60;99.90;;;;;;4964968;28;20478;-48
2020/12/27 04:31:18;;;;;;;1.00;1.00;;;4.60;99.90;;;;;;4965851;28;20649;-48
2020/12/27 04:33:43;;;;;;;1.23;0.90;;;4.60;99.90;;;;;;4969835;28;20469;-47
2020/12/27 04:36:09;;;;;;;2.60;0.70;;;4.60;99.90;;;;;;4968782;28;20586;-49
2020/12/27 04:38:34;;;;;;;3.07;0.80;;;4.50;99.90;;;;;;4961804;28;20221;-44
2020/12/27 04:41:01;;;;;;;3.00;1.20;;;4.50;99.90;;;;;;4975145;28;20181;-48
2020/12/27 04:43:26;;;;;;;1.40;1.30;;;4.50;99.90;;;;;;4974235;28;20198;-48
2020/12/27 04:45:59;;;;;;;1.20;1.10;;;4.50;99.90;;;;;;4983974;28;20182;-44
2020/12/27 04:48:26;;;;;;;2.20;1.27;;;4.50;99.90;;;;;;4971468;28;20209;-46
2020/12/27 04:50:52;;;;;;;1.20;1.10;;;4.50;99.90;;;;;;4976553;28;20181;-47
2020/12/27 04:53:21;;;;;;;1.50;1.13;;;4.50;99.90;;;;;;4984347;28;20240;-45
2020/12/27 04:55:50;;;;;;;2.03;1.10;;;4.50;99.90;;;;;;4984446;28;20662;-50
2020/12/27 04:58:18;;;;;;;2.13;1.23;;;4.50;99.90;;;;;;4984605;28;20608;-45
2020/12/27 05:00:44;;;;;;;1.90;1.47;;;4.50;99.90;;;;;;4976066;28;20461;-46
2020/12/27 05:03:10;;;;;;;2.77;1.00;;;4.50;99.90;;;;;;4966869;28;20202;-46
2020/12/27 05:05:36;;;;;;;2.87;1.00;;;4.50;99.90;;;;;;4965987;28;20190;-45
2020/12/27 05:08:01;;;;;;;4.57;1.93;;;4.50;99.90;;;;;;4965729;28;20205;-44
2020/12/27 05:10:27;;;;;;;0.87;0.87;;;4.50;99.90;;;;;;4963306;28;20296;-47
2020/12/27 05:12:54;;;;;;;1.33;1.03;;;4.50;99.90;;;;;;4972236;28;20209;-47
2020/12/27 05:15:21;;;;;;;1.40;0.90;;;4.50;99.90;;;;;;4963404;28;20269;-50
2020/12/27 05:17:48;;;;;;;3.03;1.90;;;4.50;99.90;;;;;;4963151;28;20681;-48
2020/12/27 05:20:14;;;;;;;2.03;1.20;;;4.60;99.90;;;;;;4971498;28;20293;-50
2020/12/27 05:22:41;;;;;;;3.40;1.13;;;4.60;99.90;;;;;;4964736;28;20202;-49
2020/12/27 05:25:07;;;;;;;1.30;1.20;;;4.60;99.90;;;;;;4966184;28;20206;-48
2020/12/27 05:27:42;;;;;;;1.13;1.03;;;4.60;99.90;;;;;;4961601;28;20428;-45
2020/12/27 05:30:08;;;;;;;1.80;1.40;;;4.50;99.90;;;;;;4965828;28;20236;-49
2020/12/27 05:32:34;;;;;;;1.80;1.40;;;4.50;99.90;;;;;;4961325;28;20730;-46
2020/12/27 05:34:59;;;;;;;2.63;1.83;;;4.50;99.90;;;;;;4962233;28;20182;-50
2020/12/27 05:37:29;;;;;;;1.33;1.23;;;4.50;99.90;;;;;;4973910;28;20173;-47
2020/12/27 05:39:54;;;;;;;1.97;1.60;;;4.50;99.90;;;;;;4967797;28;20263;-48
2020/12/27 05:42:25;;;;;;;1.37;1.27;;;4.40;99.90;;;;;;4966565;28;20260;-45
2020/12/27 05:44:53;;;;;;;2.97;1.33;;;4.50;99.90;;;;;;4976506;28;20220;-47
2020/12/27 05:47:20;;;;;;;1.87;1.40;;;4.40;99.90;;;;;;4963444;28;20217;-45
2020/12/27 05:49:45;;;;;;;1.43;1.33;;;4.40;99.90;;;;;;4958482;28;20701;-50
2020/12/27 05:52:15;;;;;;;1.67;1.33;;;4.40;99.90;;;;;;4974574;28;20264;-44
2020/12/27 05:54:47;;;;;;;4.57;1.30;;;4.30;99.90;;;;;;4962847;28;20708;-45
2020/12/27 05:57:16;;;;;;;1.10;1.00;;;4.30;99.90;;;;;;4964615;28;20210;-45
2020/12/27 05:59:47;;;;;;;2.03;1.30;;;4.30;99.90;;;;;;4961505;28;20304;-45
2020/12/27 06:02:37;;;;;;;1.70;1.30;;;4.30;99.90;;;;;;4960187;28;20260;-47
2020/12/27 06:05:11;;;;;;;1.37;1.10;;;4.30;99.90;;;;;;4964643;28;20185;-46
2020/12/27 06:07:42;;;;;;;1.90;1.40;;;4.30;99.90;;;;;;4963093;28;20216;-46
2020/12/27 06:10:11;;;;;;;2.90;1.37;;;4.20;99.90;;;;;;4969420;28;20707;-48
2020/12/27 06:13:11;;;;;;;2.10;1.40;;;4.20;99.90;;;;;;4971292;28;20201;-46
2020/12/27 06:15:42;;;;;;;1.20;1.10;;;4.20;99.90;;;;;;4979845;28;20733;-47
2020/12/27 06:18:15;;;;;;;2.57;1.50;;;4.20;99.90;;;;;;4978747;28;20208;-46
2020/12/27 06:20:43;;;;;;;2.47;1.10;;;4.20;99.90;;;;;;4970376;28;21361;-45
2020/12/27 06:23:09;;;;;;;1.77;1.20;;;4.20;99.90;;;;;;4975750;28;20226;-45
2020/12/27 06:25:36;;;;;;;1.27;1.17;;;4.20;99.90;;;;;;4980071;28;20169;-47
2020/12/27 06:28:02;;;;;;;1.83;1.23;;;4.20;99.90;;;;;;4983648;28;20177;-47
2020/12/27 06:30:31;;;;;;;1.33;0.93;;;4.20;99.90;;;;;;4966722;28;20212;-48
2020/12/27 06:33:12;;;;;;;1.30;1.20;;;4.30;99.90;;;;;;4972117;28;20240;-47
2020/12/27 06:35:38;;;;;;;1.70;1.30;;;4.20;99.90;;;;;;4980218;28;20205;-47
2020/12/27 06:38:14;;;;;;;1.77;1.23;;;4.30;99.90;;;;;;4973911;28;20201;-51
2020/12/27 06:40:40;;;;;;;1.60;1.30;;;4.30;99.90;;;;;;4975132;28;20368;-49
2020/12/27 06:43:20;;;;;;;2.20;1.20;;;4.30;99.90;;;;;;4976105;28;20200;-47
2020/12/27 06:45:46;;;;;;;2.10;1.03;;;4.20;99.90;;;;;;4981690;28;20244;-48
2020/12/27 06:48:33;;;;;;;1.27;1.13;;;4.20;99.90;;;;;;4978342;28;20276;-51
2020/12/27 06:50:59;;;;;;;2.27;1.20;;;4.30;99.90;;;;;;4983250;28;20212;-47
2020/12/27 06:53:44;;;;;;;1.00;0.90;;;4.30;99.90;;;;;;4966747;28;20288;-48
2020/12/27 06:56:12;;;;;;;1.13;0.80;;;4.30;99.90;;;;;;4971952;28;20182;-48
2020/12/27 06:58:39;;;;;;;1.20;1.10;;;4.30;99.90;;;;;;4960326;28;20387;-49
2020/12/27 07:01:16;;;;;;;1.87;1.10;;;4.30;99.90;;;;;;4964616;28;20190;-49
2020/12/27 07:03:45;;;;;;;1.33;1.07;;;4.40;99.90;;;;;;4968881;28;20243;-48
2020/12/27 07:06:24;;;;;;;1.03;1.03;;;4.30;99.90;;;;;;4983936;28;20584;-47
2020/12/27 07:08:50;;;;;;;1.27;1.03;;;4.30;99.90;;;;;;4964607;28;21135;-49
2020/12/27 07:11:18;;;;;;;1.40;1.30;;;4.30;99.90;;;;;;4982138;28;20188;-48
2020/12/27 07:13:47;;;;;;;1.00;0.93;;;4.40;99.90;;;;;;4979370;28;20427;-49
2020/12/27 07:16:15;;;;;;;1.40;1.27;;;4.30;99.90;;;;;;4986545;28;20588;-45
2020/12/27 07:18:40;;;;;;;1.27;0.87;;;4.40;99.90;;;;;;4978158;28;20210;-46
2020/12/27 07:21:12;;;;;;;1.30;0.70;;;4.40;99.90;;;;;;4966948;28;20514;-47
2020/12/27 07:23:45;;;;;;;3.20;1.37;;;4.40;99.90;;;;;;4946143;28;20217;-48
2020/12/27 07:26:11;;;;;;;2.27;0.90;;;4.40;99.90;;;;;;4978078;28;20605;-47
2020/12/27 07:28:37;;;;;;;1.00;0.90;;;4.40;99.90;;;;;;4963818;28;20448;-47
2020/12/27 07:31:05;;;;;;;1.10;0.90;;;4.40;99.90;;;;;;4966250;28;20178;-48
2020/12/27 07:33:37;;;;;;;2.13;1.20;;;4.40;99.90;;;;;;4960159;28;20198;-49
2020/12/27 07:36:08;;;;;;;2.73;0.80;;;4.40;99.90;;;;;;4986590;28;20182;-49
2020/12/27 07:38:54;;;;;;;2.37;0.80;;;4.40;99.90;;;;;;4971871;28;20190;-50
2020/12/27 07:41:29;;;;;;;0.93;0.70;;;4.40;99.90;;;;;;4982053;28;20194;-49
2020/12/27 07:43:59;;;;;;;1.67;1.03;;;4.40;99.90;;;;;;4970314;28;20213;-47
2020/12/27 07:46:26;;;;;;;1.00;1.00;;;4.40;99.90;;;;;;4965466;28;20213;-49
2020/12/27 07:48:52;;;;;;;1.90;1.20;;;4.40;99.90;;;;;;4964664;28;20352;-48
2020/12/27 07:51:23;;;;;;;1.20;1.10;;;4.40;99.90;;;;;;4985702;28;20196;-50
2020/12/27 07:53:54;;;;;;;1.30;0.80;;;4.30;99.90;;;;;;4974399;28;21677;-46
2020/12/27 07:56:24;;;;;;;1.23;1.07;;;4.40;99.90;;;;;;4974657;28;20190;-46
2020/12/27 07:59:01;;;;;;;1.13;1.03;;;4.30;99.90;;;;;;4964752;28;20285;-47
2020/12/27 08:01:29;;;;;;;1.20;1.03;;;4.30;99.90;;;;;;4983373;28;20220;-46
2020/12/27 08:04:03;;;;;;;2.83;0.87;;;4.30;99.90;;;;;;4985229;28;20608;-46
2020/12/27 08:06:31;;;;;;;1.83;1.03;;;4.30;99.90;;;;;;4973656;28;20224;-48
2020/12/27 08:09:10;;;;;;;0.97;0.93;;;4.30;99.90;;;;;;4966178;28;20667;-47
2020/12/27 08:11:37;;;;;;;3.53;1.10;;;4.30;99.90;;;;;;4965478;28;20185;-47
2020/12/27 08:14:04;;;;;;;0.90;0.90;;;4.30;99.90;;;;;;4971451;28;20683;-48
2020/12/27 08:16:30;;;;;;;1.43;0.90;;;4.30;99.90;;;;;;4963393;28;20178;-46
2020/12/27 08:19:10;;;;;;;1.87;1.00;;;4.30;99.90;;;;;;4966384;28;20174;-45
2020/12/27 08:21:38;;;;;;;0.90;0.90;;;4.30;99.90;;;;;;4976098;28;20212;-45
2020/12/27 08:24:08;;;;;;;1.03;0.90;;;4.20;99.90;;;;;;5001409;28;20301;-45
2020/12/27 08:26:41;;;;;;;1.33;1.13;;;4.20;99.90;;;;;;4972150;28;20193;-49
2020/12/27 08:29:15;;;;;;;0.83;0.80;;;4.20;99.90;;;;;;4974518;28;20575;-47
2020/12/27 08:31:45;;;;;;;1.47;0.80;;;4.20;99.90;;;;;;4982249;28;20162;-46
2020/12/27 08:34:16;;;;;;;1.30;0.90;;;4.20;99.90;;;;;;4986215;28;20198;-47
2020/12/27 08:36:53;;;;;;;1.33;1.07;;;4.20;99.90;;;;;;4978206;28;20295;-48
2020/12/27 08:39:24;;;;;;;0.93;0.87;;;4.20;99.90;;;;;;4975990;28;20702;-47
2020/12/27 08:42:01;;;;;;;1.73;0.93;;;4.20;99.90;;;;;;4966000;28;20190;-45
2020/12/27 08:44:34;;;;;;;3.77;1.20;;;4.20;99.90;;;;;;4971232;28;20197;-47
2020/12/27 08:47:03;;;;;;;1.20;0.90;;;4.20;99.90;;;;;;4984810;28;20177;-46
2020/12/27 08:49:37;;;;;;;4.23;1.00;;;4.20;99.90;;;;;;4962643;28;20237;-45
2020/12/27 08:52:09;;;;;;;1.80;1.20;;;4.20;99.90;;;;;;4966563;28;20197;-47
2020/12/27 08:54:34;;;;;;;1.87;0.90;;;4.20;99.90;;;;;;4980688;28;20165;-45
2020/12/27 08:57:04;;;;;;;1.00;0.90;;;4.20;99.90;;;;;;4975837;28;20610;-47
2020/12/27 08:59:29;;;;;;;0.90;0.90;;;4.20;99.90;;;;;;4971559;28;20229;-47
2020/12/27 09:01:55;;;;;;;1.27;0.97;;;4.20;99.90;;;;;;4983219;28;20612;-49
2020/12/27 09:04:21;;;;;;;0.90;0.90;;;4.20;99.90;;;;;;4983706;28;20186;-47
2020/12/27 09:06:54;;;;;;;0.83;0.73;;;4.20;99.90;;;;;;4982418;28;20326;-46
2020/12/27 09:09:20;;;;;;;2.13;0.77;;;4.20;99.90;;;;;;4966797;28;20210;-48
2020/12/27 09:11:46;;;;;;;1.20;1.10;;;4.20;99.90;;;;;;4961911;28;20231;-45
2020/12/27 09:14:35;;;;;;;2.17;1.00;;;4.20;99.90;;;;;;4983980;28;20236;-49
2020/12/27 09:17:03;;;;;;;1.27;0.77;;;4.20;99.90;;;;;;4975478;28;20193;-46
2020/12/27 09:19:32;;;;;;;2.43;0.90;;;4.10;99.90;;;;;;4967390;28;20534;-49
2020/12/27 09:22:00;;;;;;;2.27;1.40;;;4.10;99.90;;;;;;4980219;28;20185;-50
2020/12/27 09:24:26;;;;;;;1.03;0.93;;;4.10;99.90;;;;;;4968788;28;20193;-54
2020/12/27 09:26:51;;;;;;;1.07;1.07;;;4.10;99.90;;;;;;4984220;28;20196;-48
2020/12/27 09:29:19;;;;;;;1.33;1.23;;;4.10;99.90;;;;;;4967505;28;20213;-53
2020/12/27 09:31:46;;;;;;;1.10;1.00;;;4.10;99.90;;;;;;4974110;28;20186;-46
2020/12/27 09:34:12;;;;;;;1.77;1.00;;;4.20;99.90;;;;;;4983267;28;20201;-51
2020/12/27 09:36:38;;;;;;;1.20;1.00;;;4.20;99.90;;;;;;4976797;28;20184;-45
2020/12/27 09:39:05;;;;;;;1.53;1.03;;;4.20;99.90;;;;;;4984788;28;20173;-48
2020/12/27 09:41:38;;;;;;;1.10;1.00;;;4.30;99.90;;;;;;4971460;28;20221;-47
2020/12/27 09:44:04;;;;;;;1.40;1.03;;;4.30;99.90;;;;;;4970019;28;20213;-45
2020/12/27 09:46:48;;;;;;;1.40;0.90;;;4.40;99.90;;;;;;4969089;28;20175;-45
2020/12/27 09:49:34;;;;;;;0.93;0.90;;;4.40;99.90;;;;;;4975885;28;20563;-51
2020/12/27 09:52:04;;;;;;;1.30;1.10;;;4.50;99.90;;;;;;4979203;28;20292;-45
2020/12/27 09:54:32;;;;;;;0.83;0.83;;;4.50;99.90;;;;;;4975622;28;20165;-47
2020/12/27 09:56:58;;;;;;;1.37;1.00;;;4.50;99.90;;;;;;4984503;28;20531;-49
2020/12/27 09:59:23;;;;;;;1.53;1.10;;;4.50;99.90;;;;;;4966153;28;20556;-53
2020/12/27 10:01:49;;;;;;;2.27;1.10;;;4.50;99.90;;;;;;4981954;28;20181;-51
2020/12/27 10:04:14;;;;;;;0.77;0.77;;;4.50;99.90;;;;;;4978934;28;20639;-52
2020/12/27 10:06:40;;;;;;;1.33;1.20;;;4.60;99.90;;;;;;4976156;28;20238;-48
2020/12/27 10:09:05;;;;;;;1.70;0.93;;;4.60;99.90;;;;;;4980240;28;20193;-48
2020/12/27 10:11:31;;;;;;;0.83;0.83;;;4.60;99.90;;;;;;4974941;28;20213;-45
2020/12/27 10:13:56;;;;;;;1.23;0.83;;;4.60;99.90;;;;;;4984029;28;20208;-46
2020/12/27 10:16:22;;;;;;;1.60;1.13;;;4.60;99.90;;;;;;4970395;28;20198;-52
2020/12/27 10:18:47;;;;;;;1.50;0.70;;;4.60;99.90;;;;;;4976009;28;20997;-51
2020/12/27 10:21:13;;;;;;;0.93;0.83;;;4.60;99.90;;;;;;4963337;28;20205;-50
2020/12/27 10:23:38;;;;;;;1.63;1.00;;;4.60;99.90;;;;;;4959286;28;20209;-44
2020/12/27 10:26:06;;;;;;;0.80;0.80;;;4.60;99.90;;;;;;4966844;28;20556;-53
2020/12/27 10:28:32;;;;;;;1.37;1.27;;;4.60;99.90;;;;;;4969584;28;20608;-46
2020/12/27 10:30:57;;;;;;;0.60;0.60;;;4.70;99.90;;;;;;4964699;28;20253;-50
2020/12/27 10:33:23;;;;;;;0.90;0.80;;;4.70;99.90;;;;;;4978338;28;20210;-52
2020/12/27 10:35:48;;;;;;;1.93;0.90;;;4.70;99.90;;;;;;4981231;28;20189;-45
2020/12/27 10:38:14;;;;;;;1.70;0.80;;;4.80;99.90;;;;;;4974938;28;20554;-51
2020/12/27 10:40:39;;;;;;;1.00;0.90;;;4.80;99.90;;;;;;4980960;28;20177;-47
2020/12/27 10:43:05;;;;;;;1.70;0.70;;;4.80;99.90;;;;;;4977030;28;20216;-45
2020/12/27 10:45:30;;;;;;;0.93;0.80;;;4.80;99.90;;;;;;4974794;28;20189;-45
2020/12/27 10:47:56;;;;;;;0.97;0.87;;;4.80;99.90;;;;;;4973378;28;20724;-50
2020/12/27 10:50:21;;;;;;;0.90;0.80;;;4.90;99.90;;;;;;4964273;28;20251;-48
2020/12/27 10:52:47;;;;;;;1.50;0.80;;;4.90;99.90;;;;;;4978017;28;20272;-45
2020/12/27 10:55:12;;;;;;;0.60;0.60;;;4.90;99.90;;;;;;4983297;28;20258;-45
2020/12/27 10:57:37;;;;;;;0.80;0.80;;;5.00;99.90;;;;;;4970198;28;20186;-44
2020/12/27 11:00:04;;;;;;;0.60;0.60;;;5.00;99.90;;;;;;4972038;28;21008;-50
2020/12/27 11:02:29;;;;;;;4.83;1.70;;;5.00;99.90;;;;;;4966819;28;20220;-49
2020/12/27 11:04:55;;;;;;;4.17;0.80;;;5.10;99.90;;;;;;4982444;28;20202;-46
2020/12/27 11:07:20;;;;;;;0.60;0.60;;;5.10;99.90;;;;;;4968076;28;20193;-46
2020/12/27 11:09:46;;;;;;;0.83;0.83;;;5.10;99.90;;;;;;4987410;28;20194;-47
2020/12/27 11:12:11;;;;;;;0.70;0.70;;;5.10;99.90;;;;;;4974333;28;20221;-46
2020/12/27 11:14:37;;;;;;;1.23;0.50;;;5.10;99.90;;;;;;4971046;28;20257;-46
2020/12/27 11:17:02;;;;;;;0.77;0.70;;;5.10;99.90;;;;;;4963313;28;20194;-49
2020/12/27 11:19:28;;;;;;;0.73;0.50;;;5.10;99.90;;;;;;4971797;28;22442;-46
2020/12/27 11:21:54;;;;;;;1.20;0.80;;;5.20;99.90;;;;;;4975647;28;20183;-49
2020/12/27 11:24:19;;;;;;;1.00;0.67;;;5.20;99.90;;;;;;4982758;28;20268;-45
2020/12/27 11:26:45;;;;;;;1.73;0.47;;;5.20;99.90;;;;;;4983196;28;20232;-46
2020/12/27 11:29:10;;;;;;;0.60;0.60;;;5.20;99.90;;;;;;4974345;28;20367;-47
2020/12/27 11:31:36;;;;;;;1.00;0.80;;;5.30;99.90;;;;;;4975857;28;20305;-46
2020/12/27 11:34:01;;;;;;;0.70;0.70;;;5.30;99.90;;;;;;4971481;28;20202;-50
2020/12/27 11:36:26;;;;;;;0.80;0.70;;;5.30;99.90;;;;;;4979613;28;20912;-45
2020/12/27 11:38:52;;;;;;;1.37;0.67;;;5.30;99.90;;;;;;4974554;28;20193;-46
2020/12/27 11:41:17;;;;;;;1.10;0.77;;;5.30;99.90;;;;;;4971981;28;20241;-50
2020/12/27 11:43:43;;;;;;;1.00;0.70;;;5.30;99.90;;;;;;4969386;28;20206;-45
2020/12/27 11:46:09;;;;;;;0.50;0.50;;;5.30;99.90;;;;;;4967509;28;20257;-47
2020/12/27 11:48:34;;;;;;;0.70;0.70;;;5.30;99.90;;;;;;4963566;28;20350;-49
2020/12/27 11:51:00;;;;;;;0.73;0.73;;;5.40;99.90;;;;;;4974487;28;20663;-49
2020/12/27 11:53:25;;;;;;;0.83;0.73;;;5.40;99.90;;;;;;4982917;28;20201;-51
2020/12/27 11:55:51;;;;;;;1.17;0.70;;;5.40;99.90;;;;;;4981428;28;20169;-48
2020/12/27 11:58:16;;;;;;;0.77;0.50;;;5.40;99.90;;;;;;4986417;28;20530;-50
2020/12/27 12:00:42;;;;;;;0.60;0.60;;;5.40;99.90;;;;;;4982574;28;20217;-46
2020/12/27 12:03:07;;;;;;;0.73;0.73;;;5.40;99.90;;;;;;4974417;28;20884;-47
2020/12/27 12:05:33;;;;;;;1.13;0.50;;;5.40;99.90;;;;;;4967975;28;20690;-50
2020/12/27 12:07:58;;;;;;;0.60;0.60;;;5.50;99.90;;;;;;4985246;28;20206;-45
2020/12/27 12:10:24;;;;;;;3.53;0.80;;;5.50;99.90;;;;;;4970615;28;20295;-49
2020/12/27 12:12:49;;;;;;;0.60;0.50;;;5.50;99.90;;;;;;4977072;28;20913;-45
2020/12/27 12:15:15;;;;;;;0.60;0.60;;;5.50;99.90;;;;;;4967116;28;20178;-45
2020/12/27 12:17:40;;;;;;;1.20;0.67;;;5.50;99.90;;;;;;4962983;28;20197;-46
2020/12/27 12:20:06;;;;;;;0.83;0.60;;;5.50;99.90;;;;;;4961860;28;20198;-45
2020/12/27 12:22:31;;;;;;;0.83;0.80;;;5.50;99.90;;;;;;4974185;28;20225;-50
2020/12/27 12:24:57;;;;;;;0.60;0.60;;;5.50;99.90;;;;;;4980202;28;20189;-48
2020/12/27 12:27:22;;;;;;;0.90;0.80;;;5.50;99.90;;;;;;4983114;28;20181;-49
2020/12/27 12:29:48;;;;;;;0.77;0.77;;;5.50;99.90;;;;;;4982953;28;20216;-46
2020/12/27 12:32:13;;;;;;;0.80;0.80;;;5.50;99.90;;;;;;4977405;28;20313;-47
2020/12/27 12:34:38;;;;;;;2.20;0.80;;;5.50;99.90;;;;;;4971103;28;20204;-45
2020/12/27 12:37:04;;;;;;;0.67;0.60;;;5.50;99.90;;;;;;4972920;28;20682;-46
2020/12/27 12:39:29;;;;;;;2.20;0.90;;;5.50;99.90;;;;;;4963426;28;20255;-48
2020/12/27 12:41:57;;;;;;;3.03;0.60;;;5.40;99.90;;;;;;4977703;28;20193;-49
2020/12/27 12:44:22;;;;;;;0.97;0.77;;;5.40;99.90;;;;;;4986870;28;20185;-50
2020/12/27 12:46:48;;;;;;;1.00;0.60;;;5.40;99.90;;;;;;5002851;28;20169;-49
2020/12/27 12:49:13;;;;;;;1.37;0.77;;;5.30;99.90;;;;;;4968203;28;20281;-49
2020/12/27 12:51:38;;;;;;;1.00;0.80;;;5.30;99.90;;;;;;4965157;28;20182;-44
2020/12/27 12:54:04;;;;;;;0.70;0.60;;;5.20;99.90;;;;;;4980112;28;20681;-44
2020/12/27 12:56:29;;;;;;;0.80;0.80;;;5.10;99.90;;;;;;4970117;28;20190;-45
2020/12/27 12:58:55;;;;;;;1.33;0.87;;;5.00;99.90;;;;;;4985208;28;20197;-43